createdAt,value
2019-04-20T00:01:11.714Z,448.70
2019-04-20T00:03:42.359Z,457.60
2019-04-20T00:06:09.251Z,459.37
2019-04-20T00:08:40.746Z,456.57
2019-04-20T00:11:14.157Z,441.17
2019-04-20T00:13:47.687Z,441.97
2019-04-20T00:16:08.523Z,450.60
2019-04-20T00:18:43.028Z,428.33
2019-04-20T00:24:37.506Z,562.43
2019-04-20T00:27:27.139Z,482.10
2019-04-20T00:29:56.096Z,527.43
2019-04-20T00:32:14.602Z,504.10
2019-04-20T00:34:39.878Z,502.50
2019-04-20T00:37:05.835Z,466.33
2019-04-20T00:39:34.361Z,520.13
2019-04-20T00:42:07.552Z,445.67
2019-04-20T00:44:35.876Z,555.67
2019-04-20T00:47:12.061Z,478.33
2019-04-20T00:49:50.886Z,516.43
2019-04-20T00:54:36.923Z,469.23
2019-04-20T00:57:20.407Z,451.33
2019-04-20T01:00:03.623Z,501.87
2019-04-20T01:02:22.189Z,467.57
2019-04-20T01:05:02.540Z,481.97
2019-04-20T01:07:38.558Z,447.63
2019-04-20T01:10:02.849Z,464.93
2019-04-20T01:12:33.776Z,453.63
2019-04-20T01:15:04.277Z,463.97
2019-04-20T01:17:30.959Z,468.00
2019-04-20T01:19:58.530Z,456.17
2019-04-20T01:22:28.403Z,439.87
2019-04-20T01:25:00.141Z,462.50
2019-04-20T01:27:40.804Z,445.13
2019-04-20T01:30:08.338Z,451.50
2019-04-20T01:32:34.253Z,492.87
2019-04-20T01:35:04.774Z,480.50
2019-04-20T01:37:36.477Z,444.87
2019-04-20T01:39:56.808Z,478.27
2019-04-20T01:42:23.331Z,432.87
2019-04-20T01:44:53.601Z,469.93
2019-04-20T01:47:23.905Z,458.53
2019-04-20T01:49:58.570Z,474.20
2019-04-20T01:52:27.096Z,472.53
2019-04-20T01:55:17.356Z,478.90
2019-04-20T01:57:54.782Z,454.90
2019-04-20T02:00:28.439Z,442.57
2019-04-20T02:03:00.258Z,435.80
2019-04-20T02:05:29.669Z,491.07
2019-04-20T02:07:55.576Z,446.23
2019-04-20T02:10:33.234Z,483.67
2019-04-20T02:12:58.352Z,446.77
2019-04-20T02:15:30.068Z,438.53
2019-04-20T02:18:07.885Z,450.37
2019-04-20T02:20:37.542Z,477.37
2019-04-20T02:23:06.281Z,463.50
2019-04-20T02:25:20.662Z,478.53
2019-04-20T02:27:53.142Z,473.70
2019-04-20T02:33:40.127Z,460.90
2019-04-20T02:36:23.733Z,433.60
2019-04-20T02:41:39.803Z,441.63
2019-04-20T02:46:33.338Z,436.07
2019-04-20T02:49:10.255Z,438.43
2019-04-20T02:51:35.460Z,434.30
2019-04-20T02:54:16.667Z,441.10
2019-04-20T02:56:36.189Z,453.73
2019-04-20T02:59:12.653Z,473.60
2019-04-20T03:01:43.620Z,445.87
2019-04-20T03:03:55.992Z,459.27
2019-04-20T03:06:32.686Z,474.40
2019-04-20T03:09:15.270Z,428.50
2019-04-20T03:11:46.479Z,441.83
2019-04-20T03:14:03.965Z,434.40
2019-04-20T03:16:35.741Z,449.37
2019-04-20T03:19:02.529Z,486.33
2019-04-20T03:21:37.978Z,452.20
2019-04-20T03:24:12.984Z,440.17
2019-04-20T03:26:55.993Z,460.70
2019-04-20T03:30:03.659Z,490.00
2019-04-20T03:35:30.139Z,486.47
2019-04-20T03:37:45.744Z,448.80
2019-04-20T03:40:05.513Z,496.03
2019-04-20T03:42:18.294Z,424.30
2019-04-20T03:44:56.469Z,464.07
2019-04-20T03:47:30.481Z,450.63
2019-04-20T03:50:14.689Z,467.30
2019-04-20T03:52:44.974Z,398.73
2019-04-20T03:55:24.253Z,456.87
2019-04-20T03:58:10.796Z,417.53
2019-04-20T04:01:19.919Z,433.77
2019-04-20T04:03:58.762Z,464.50
2019-04-20T04:06:23.521Z,438.83
2019-04-20T04:08:55.876Z,434.47
2019-04-20T04:11:26.477Z,440.80
2019-04-20T04:13:39.724Z,452.40
2019-04-20T04:16:11.405Z,443.30
2019-04-20T04:18:41.001Z,428.97
2019-04-20T04:21:11.459Z,450.60
2019-04-20T04:23:54.250Z,436.83
2019-04-20T04:26:22.301Z,453.77
2019-04-20T04:28:47.517Z,443.30
2019-04-20T04:31:26.277Z,441.73
2019-04-20T04:36:17.759Z,434.97
2019-04-20T04:39:11.170Z,474.40
2019-04-20T04:41:36.336Z,486.97
2019-04-20T04:43:52.120Z,473.70
2019-04-20T04:46:03.888Z,454.87
2019-04-20T04:48:37.271Z,425.70
2019-04-20T04:51:08.977Z,447.73
2019-04-20T04:53:44.188Z,457.13
2019-04-20T04:56:07.372Z,448.60
2019-04-20T04:58:31.898Z,441.37
2019-04-20T05:01:09.776Z,434.50
2019-04-20T05:03:44.720Z,445.13
2019-04-20T05:06:23.149Z,429.07
2019-04-20T05:08:45.292Z,446.70
2019-04-20T05:11:08.881Z,451.40
2019-04-20T05:13:44.736Z,445.00
2019-04-20T05:16:19.443Z,451.90
2019-04-20T05:18:57.896Z,413.80
2019-04-20T05:21:34.141Z,447.33
2019-04-20T05:24:03.250Z,445.73
2019-04-20T05:26:44.591Z,494.67
2019-04-20T05:29:04.627Z,451.93
2019-04-20T05:31:31.004Z,503.43
2019-04-20T05:34:15.779Z,443.27
2019-04-20T05:37:03.682Z,407.73
2019-04-20T05:39:53.227Z,303.13
2019-04-20T05:42:03.377Z,295.60
2019-04-20T05:44:42.783Z,326.63
2019-04-20T05:47:11.038Z,302.67
2019-04-20T05:49:34.816Z,321.00
2019-04-20T05:52:25.387Z,292.07
2019-04-20T05:54:39.069Z,311.37
2019-04-20T05:57:14.991Z,289.57
2019-04-20T05:59:59.433Z,328.60
2019-04-20T06:02:26.273Z,354.97
2019-04-20T06:05:03.218Z,395.80
2019-04-20T06:07:26.807Z,377.90
2019-04-20T06:09:58.044Z,427.83
2019-04-20T06:12:19.822Z,387.10
2019-04-20T06:15:04.519Z,374.77
2019-04-20T06:17:55.372Z,377.60
2019-04-20T06:20:31.064Z,346.10
2019-04-20T06:23:10.066Z,328.63
2019-04-20T06:25:50.242Z,346.97
2019-04-20T06:28:01.963Z,351.37
2019-04-20T06:30:31.009Z,352.83
2019-04-20T06:34:30.273Z,339.53
2019-04-20T06:36:49.658Z,337.10
2019-04-20T06:39:24.393Z,382.83
2019-04-20T06:44:36.925Z,397.67
2019-04-20T06:46:59.148Z,353.03
2019-04-20T06:52:15.428Z,355.70
2019-04-20T06:55:05.261Z,354.90
2019-04-20T06:57:43.148Z,333.97
2019-04-20T07:00:12.139Z,362.60
2019-04-20T07:02:43.076Z,353.23
2019-04-20T07:05:15.319Z,347.33
2019-04-20T07:07:43.396Z,346.80
2019-04-20T07:10:14.713Z,337.07
2019-04-20T07:12:36.937Z,369.23
2019-04-20T07:14:58.845Z,359.23
2019-04-20T07:17:55.016Z,394.00
2019-04-20T07:20:53.991Z,324.27
2019-04-20T07:25:58.542Z,332.80
2019-04-20T07:28:26.562Z,328.10
2019-04-20T07:30:58.234Z,328.70
2019-04-20T07:33:30.074Z,353.17
2019-04-20T07:35:52.447Z,316.27
2019-04-20T07:41:29.601Z,336.77
2019-04-20T07:43:58.982Z,329.47
2019-04-20T07:46:35.293Z,353.63
2019-04-20T07:48:50.640Z,342.17
2019-04-20T07:51:10.312Z,321.80
2019-04-20T07:53:40.358Z,338.20
2019-04-20T07:56:25.148Z,334.50
2019-04-20T07:58:41.108Z,330.70
2019-04-20T08:01:45.438Z,344.97
2019-04-20T08:04:09.295Z,335.57
2019-04-20T08:06:28.837Z,353.47
2019-04-20T08:09:08.684Z,318.17
2019-04-20T08:11:50.445Z,354.27
2019-04-20T08:14:18.126Z,362.77
2019-04-20T08:19:45.684Z,372.67
2019-04-20T08:22:19.920Z,356.13
2019-04-20T08:24:42.826Z,357.50
2019-04-20T08:27:13.160Z,321.87
2019-04-20T08:33:04.236Z,368.57
2019-04-20T08:35:47.428Z,347.40
2019-04-20T08:38:37.110Z,311.60
2019-04-20T08:40:43.477Z,355.37
2019-04-20T08:45:46.589Z,328.77
2019-04-20T08:48:18.980Z,336.80
2019-04-20T08:50:48.539Z,341.47
2019-04-20T08:53:23.144Z,317.30
2019-04-20T08:58:59.727Z,341.30
2019-04-20T09:05:27.458Z,331.00
2019-04-20T09:08:14.393Z,315.43
2019-04-20T09:11:47.988Z,375.17
2019-04-20T09:14:35.188Z,353.03
2019-04-20T09:17:39.839Z,288.33
2019-04-20T09:21:27.347Z,346.03
2019-04-20T09:25:54.534Z,326.27
2019-04-20T09:32:26.305Z,345.40
2019-04-20T09:35:00.045Z,447.95
2019-04-20T09:37:35.792Z,403.05
2019-04-20T09:40:21.623Z,445.92
2019-04-20T09:42:38.521Z,410.67
2019-04-20T09:45:13.097Z,419.28
2019-04-20T09:47:43.310Z,425.72
2019-04-20T09:50:22.310Z,413.30
2019-04-20T09:52:51.387Z,416.15
2019-04-20T09:55:22.068Z,412.65
2019-04-20T09:57:54.220Z,406.87
2019-04-20T10:00:26.965Z,421.90
2019-04-20T10:02:39.910Z,397.70
2019-04-20T10:05:09.928Z,383.62
2019-04-20T10:07:39.271Z,416.23
2019-04-20T10:10:18.785Z,407.35
2019-04-20T10:12:37.632Z,443.75
2019-04-20T10:15:12.188Z,426.93
2019-04-20T10:17:36.657Z,412.12
2019-04-20T10:20:11.519Z,402.37
2019-04-20T10:22:36.090Z,406.15
2019-04-20T10:25:04.597Z,427.45
2019-04-20T10:27:32.749Z,387.02
2019-04-20T10:30:02.757Z,427.17
2019-04-20T10:32:37.754Z,368.25
2019-04-20T10:35:04.418Z,409.45
2019-04-20T10:37:37.781Z,409.45
2019-04-20T10:40:06.743Z,408.20
2019-04-20T10:42:34.696Z,378.77
2019-04-20T10:45:04.156Z,389.75
2019-04-20T10:47:33.303Z,410.87
2019-04-20T10:50:00.982Z,444.58
2019-04-20T10:52:29.872Z,336.07
2019-04-20T10:55:00.550Z,378.90
2019-04-20T10:57:28.312Z,341.45
2019-04-20T10:59:55.845Z,388.68
2019-04-20T11:02:23.652Z,395.30
2019-04-20T11:04:54.947Z,380.12
2019-04-20T11:07:26.373Z,400.07
2019-04-20T11:10:07.964Z,419.73
2019-04-20T11:12:28.342Z,393.02
2019-04-20T11:14:58.655Z,372.70
2019-04-20T11:17:29.771Z,399.42
2019-04-20T11:19:57.215Z,416.18
2019-04-20T11:22:26.247Z,365.68
2019-04-20T11:24:54.343Z,415.55
2019-04-20T11:27:22.566Z,404.85
2019-04-20T11:29:51.984Z,414.00
2019-04-20T11:32:22.233Z,459.85
2019-04-20T11:34:51.274Z,438.52
2019-04-20T11:37:19.446Z,426.73
2019-04-20T11:39:47.415Z,456.30
2019-04-20T11:42:14.855Z,382.87
2019-04-20T11:44:42.510Z,405.37
2019-04-20T11:47:10.598Z,363.02
2019-04-20T11:49:39.690Z,411.77
2019-04-20T11:52:09.960Z,381.35
2019-04-20T11:54:38.475Z,418.97
2019-04-20T11:57:07.086Z,368.45
2019-04-20T11:59:34.984Z,409.73
2019-04-20T12:02:20.126Z,376.77
2019-04-20T12:05:05.946Z,400.98
2019-04-20T12:07:19.229Z,384.52
2019-04-20T12:09:47.293Z,365.57
2019-04-20T12:12:29.310Z,385.17
2019-04-20T12:14:44.532Z,449.00
2019-04-20T12:17:13.365Z,364.30
2019-04-20T12:19:41.931Z,387.35
2019-04-20T12:22:09.743Z,342.55
2019-04-20T12:24:38.189Z,399.70
2019-04-20T12:27:07.009Z,345.60
2019-04-20T12:29:34.771Z,400.48
2019-04-20T12:32:05.477Z,350.90
2019-04-20T12:34:32.298Z,395.37
2019-04-20T12:37:00.880Z,362.72
2019-04-20T12:39:29.034Z,407.17
2019-04-20T12:41:58.851Z,372.20
2019-04-20T12:44:25.863Z,427.58
2019-04-20T12:46:53.930Z,377.15
2019-04-20T12:49:21.670Z,415.43
2019-04-20T12:51:57.085Z,419.97
2019-04-20T12:54:22.693Z,418.02
2019-04-20T12:56:52.985Z,417.87
2019-04-20T12:59:23.342Z,472.73
2019-04-20T13:01:51.408Z,400.77
2019-04-20T13:04:20.532Z,449.32
2019-04-20T13:06:49.307Z,386.27
2019-04-20T13:09:18.910Z,466.98
2019-04-20T13:11:59.061Z,413.77
2019-04-20T13:15:24.583Z,459.67
2019-04-20T13:17:54.237Z,405.00
2019-04-20T13:20:21.921Z,424.30
2019-04-20T13:22:50.799Z,446.30
2019-04-20T13:25:19.062Z,439.43
2019-04-20T13:27:47.263Z,437.30
2019-04-20T13:30:15.460Z,414.77
2019-04-20T13:32:45.716Z,441.03
2019-04-20T13:35:14.106Z,436.00
2019-04-20T13:37:42.359Z,443.90
2019-04-20T13:40:12.696Z,405.77
2019-04-20T13:42:41.501Z,421.80
2019-04-20T13:45:10.890Z,397.17
2019-04-20T13:47:39.033Z,429.17
2019-04-20T13:50:07.228Z,479.97
2019-04-20T13:52:35.065Z,425.30
2019-04-20T13:55:03.272Z,448.43
2019-04-20T13:57:38.069Z,445.27
2019-04-20T14:00:26.207Z,420.83
2019-04-20T14:03:00.664Z,430.23
2019-04-20T14:05:33.087Z,420.73
2019-04-20T14:08:05.326Z,423.47
2019-04-20T14:10:33.415Z,394.43
2019-04-20T14:13:08.205Z,406.87
2019-04-20T14:15:31.195Z,409.00
2019-04-20T14:17:59.364Z,427.50
2019-04-20T14:20:27.196Z,459.40
2019-04-20T14:22:54.939Z,414.33
2019-04-20T14:25:22.948Z,436.03
2019-04-20T14:27:50.857Z,430.17
2019-04-20T14:30:19.283Z,427.60
2019-04-20T14:32:48.169Z,445.63
2019-04-20T14:35:16.741Z,418.00
2019-04-20T14:37:45.958Z,467.53
2019-04-20T14:40:14.556Z,409.43
2019-04-20T14:42:47.723Z,429.40
2019-04-20T14:45:12.658Z,453.13
2019-04-20T14:47:39.995Z,452.57
2019-04-20T14:50:09.791Z,450.77
2019-04-20T14:52:37.694Z,450.20
2019-04-20T14:55:06.090Z,442.17
2019-04-20T14:57:35.056Z,425.77
2019-04-20T15:00:22.065Z,437.23
2019-04-20T15:02:50.406Z,435.07
2019-04-20T15:05:19.156Z,455.87
2019-04-20T15:07:46.965Z,439.70
2019-04-20T15:10:16.162Z,457.83
2019-04-20T15:12:49.937Z,473.90
2019-04-20T15:15:14.654Z,470.80
2019-04-20T15:17:47.865Z,449.70
2019-04-20T15:20:35.234Z,481.03
2019-04-20T15:23:13.635Z,412.80
2019-04-20T15:25:42.230Z,507.97
2019-04-20T15:28:10.454Z,449.23
2019-04-20T15:30:38.376Z,452.53
2019-04-20T15:33:07.171Z,449.30
2019-04-20T15:35:34.807Z,465.97
2019-04-20T15:38:02.900Z,448.07
2019-04-20T15:40:31.054Z,417.10
2019-04-20T15:43:06.738Z,470.10
2019-04-20T15:45:29.449Z,454.17
2019-04-20T15:47:58.115Z,426.77
2019-04-20T15:50:27.704Z,438.90
2019-04-20T15:52:57.385Z,467.90
2019-04-20T15:55:31.067Z,441.50
2019-04-20T15:57:55.586Z,462.10
2019-04-20T16:00:24.615Z,465.87
2019-04-20T16:03:07.431Z,505.77
2019-04-20T16:05:47.194Z,451.10
2019-04-20T16:08:23.673Z,478.63
2019-04-20T16:10:51.383Z,454.33
2019-04-20T16:13:26.018Z,473.73
2019-04-20T16:15:49.770Z,435.73
2019-04-20T16:18:18.805Z,445.13
2019-04-20T16:20:56.547Z,430.07
2019-04-20T16:23:16.592Z,441.37
2019-04-20T16:25:53.353Z,437.50
2019-04-20T16:28:21.712Z,456.17
2019-04-20T16:30:51.628Z,449.20
2019-04-20T16:33:20.676Z,452.13
2019-04-20T16:35:48.433Z,422.50
2019-04-20T16:38:16.228Z,444.23
2019-04-20T16:40:44.335Z,451.00
2019-04-20T16:43:22.141Z,447.50
2019-04-20T16:45:41.724Z,455.17
2019-04-20T16:48:10.372Z,423.60
2019-04-20T16:50:38.189Z,469.23
2019-04-20T16:53:06.638Z,443.90
2019-04-20T16:55:34.855Z,458.00
2019-04-20T16:58:03.750Z,426.30
2019-04-20T17:00:33.441Z,426.93
2019-04-20T17:03:02.580Z,436.77
2019-04-20T17:05:31.524Z,446.80
2019-04-20T17:08:00.711Z,431.10
2019-04-20T17:10:28.970Z,433.77
2019-04-20T17:12:57.755Z,439.37
2019-04-20T17:15:25.633Z,455.93
2019-04-20T17:17:55.434Z,429.40
2019-04-20T17:20:25.286Z,449.20
2019-04-20T17:22:54.306Z,437.77
2019-04-20T17:25:22.026Z,439.00
2019-04-20T17:28:04.800Z,476.33
2019-04-20T17:30:59.010Z,456.17
2019-04-20T17:33:47.440Z,480.03
2019-04-20T17:36:12.410Z,433.43
2019-04-20T17:38:41.790Z,506.10
2019-04-20T17:41:29.265Z,433.83
2019-04-20T17:43:56.709Z,438.23
2019-04-20T17:46:17.403Z,446.17
2019-04-20T17:48:45.286Z,436.70
2019-04-20T17:51:28.725Z,451.77
2019-04-20T17:54:05.337Z,448.20
2019-04-20T17:56:31.003Z,433.43
2019-04-20T17:58:58.613Z,436.97
2019-04-20T18:02:09.056Z,458.33
2019-04-20T18:04:57.494Z,489.07
2019-04-20T18:07:24.990Z,441.80
2019-04-20T18:09:53.418Z,477.13
2019-04-20T18:12:01.937Z,440.17
2019-04-20T18:14:43.091Z,472.90
2019-04-20T18:17:21.996Z,435.60
2019-04-20T18:19:46.893Z,462.67
2019-04-20T18:22:16.039Z,447.83
2019-04-20T18:25:07.597Z,472.47
2019-04-20T18:27:31.729Z,421.03
2019-04-20T18:30:01.361Z,464.80
2019-04-20T18:32:31.905Z,429.63
2019-04-20T18:35:07.884Z,473.23
2019-04-20T18:37:34.442Z,469.83
2019-04-20T18:40:09.161Z,435.70
2019-04-20T18:42:39.884Z,492.17
2019-04-20T18:45:21.888Z,460.17
2019-04-20T18:47:49.653Z,439.07
2019-04-20T18:50:10.749Z,447.57
2019-04-20T18:52:35.678Z,437.37
2019-04-20T18:55:07.450Z,434.03
2019-04-20T18:57:34.944Z,450.77
2019-04-20T19:00:07.813Z,454.97
2019-04-20T19:02:42.963Z,463.87
2019-04-20T19:05:09.497Z,450.43
2019-04-20T19:07:41.411Z,430.97
2019-04-20T19:10:16.405Z,459.83
2019-04-20T19:12:47.785Z,432.57
2019-04-20T19:15:46.912Z,489.13
2019-04-20T19:18:31.637Z,438.97
2019-04-20T19:20:53.056Z,457.50
2019-04-20T19:23:20.935Z,431.27
2019-04-20T19:25:49.868Z,457.07
2019-04-20T19:28:23.085Z,447.47
2019-04-20T19:31:02.874Z,428.63
2019-04-20T19:33:33.061Z,414.27
2019-04-20T19:35:56.340Z,436.47
2019-04-20T19:38:25.760Z,438.47
2019-04-20T19:40:59.417Z,441.57
2019-04-20T19:43:28.818Z,454.70
2019-04-20T19:46:29.736Z,439.80
2019-04-20T19:48:32.673Z,448.23
2019-04-20T19:51:12.949Z,437.30
2019-04-20T19:53:36.582Z,454.90
2019-04-20T19:56:03.549Z,440.33
2019-04-20T19:58:30.287Z,515.77
2019-04-20T20:00:53.416Z,420.40
2019-04-20T20:03:19.782Z,445.77
2019-04-20T20:05:50.901Z,452.07
2019-04-20T20:08:23.641Z,454.63
2019-04-20T20:10:48.450Z,451.77
2019-04-20T20:13:16.286Z,431.07
2019-04-20T20:15:45.513Z,418.93
2019-04-20T20:18:31.009Z,465.57
2019-04-20T20:21:04.005Z,442.37
2019-04-20T20:23:16.068Z,443.00
2019-04-20T20:25:47.847Z,460.37
2019-04-20T20:28:27.105Z,440.60
2019-04-20T20:30:58.190Z,469.13
2019-04-20T20:33:37.881Z,465.10
2019-04-20T20:35:53.732Z,452.43
2019-04-20T20:38:23.093Z,420.67
2019-04-20T20:40:55.204Z,485.30
2019-04-20T20:43:22.777Z,412.83
2019-04-20T20:45:55.407Z,427.00
2019-04-20T20:48:24.431Z,457.17
2019-04-20T20:50:57.371Z,456.60
2019-04-20T20:53:21.837Z,471.97
2019-04-20T20:55:46.466Z,439.53
2019-04-20T20:58:18.315Z,444.30
2019-04-20T21:00:53.914Z,445.80
2019-04-20T21:03:22.131Z,426.63
2019-04-20T21:05:42.428Z,407.70
2019-04-20T21:08:11.105Z,391.60
2019-04-20T21:10:42.091Z,338.20
2019-04-20T21:13:10.961Z,369.10
2019-04-20T21:15:38.396Z,340.37
2019-04-20T21:18:31.293Z,362.50
2019-04-20T21:20:53.686Z,330.60
2019-04-20T21:23:20.040Z,372.37
2019-04-20T21:25:45.294Z,354.47
2019-04-20T21:28:08.950Z,338.63
2019-04-20T21:30:42.810Z,359.67
2019-04-20T21:33:07.846Z,341.63
2019-04-20T21:35:38.134Z,379.00
2019-04-20T21:38:08.490Z,340.50
2019-04-20T21:40:39.493Z,369.00
2019-04-20T21:43:07.288Z,388.63
2019-04-20T21:45:37.233Z,330.00
2019-04-20T21:48:12.009Z,350.07
2019-04-20T21:50:54.615Z,373.63
2019-04-20T21:53:10.605Z,346.47
2019-04-20T21:55:34.187Z,379.20
2019-04-20T21:58:03.589Z,366.10
2019-04-20T22:00:56.040Z,399.77
2019-04-20T22:03:22.685Z,359.70
2019-04-20T22:06:00.172Z,367.90
2019-04-20T22:08:28.426Z,355.80
2019-04-20T22:10:55.783Z,360.20
2019-04-20T22:13:29.283Z,357.57
2019-04-20T22:15:58.563Z,335.73
2019-04-20T22:18:24.000Z,358.57
2019-04-20T22:21:03.577Z,325.13
2019-04-20T22:23:36.553Z,346.17
2019-04-20T22:26:03.845Z,357.47
2019-04-20T22:28:22.276Z,347.70
2019-04-20T22:30:50.387Z,322.10
2019-04-20T22:33:27.034Z,345.13
2019-04-20T22:35:55.567Z,336.57
2019-04-20T22:38:28.810Z,337.90
2019-04-20T22:41:05.629Z,330.17
2019-04-20T22:43:31.394Z,347.43
2019-04-20T22:45:57.146Z,342.20
2019-04-20T22:48:25.110Z,402.40
2019-04-20T22:51:14.160Z,322.13
2019-04-20T22:53:35.583Z,356.57
2019-04-20T22:56:14.777Z,356.03
2019-04-20T22:58:34.769Z,341.67
2019-04-20T23:00:56.168Z,331.50
2019-04-20T23:03:20.857Z,341.00
2019-04-20T23:05:49.002Z,370.30
2019-04-20T23:08:17.018Z,313.90
2019-04-20T23:10:47.717Z,369.37
2019-04-20T23:13:13.834Z,352.97
2019-04-20T23:15:42.432Z,412.93
2019-04-20T23:18:11.955Z,432.63
2019-04-20T23:20:41.121Z,437.77
2019-04-20T23:23:11.008Z,444.37
2019-04-20T23:25:38.989Z,469.33
2019-04-20T23:28:11.354Z,446.23
2019-04-20T23:30:39.330Z,435.00
2019-04-20T23:33:05.879Z,451.70
2019-04-20T23:35:37.609Z,437.40
2019-04-20T23:38:11.212Z,447.13
2019-04-20T23:40:32.403Z,421.13
2019-04-20T23:43:07.786Z,447.23
2019-04-20T23:45:56.852Z,432.73
2019-04-20T23:48:38.958Z,440.00
2019-04-20T23:51:29.944Z,441.27
2019-04-20T23:53:48.230Z,424.17
2019-04-20T23:56:03.743Z,430.70
2019-04-20T23:58:38.210Z,438.33
